Time;durP1;ratioP1;P1;durP2;ratioP2;P2;SDS_P1;SDS_P2;PMS_P1;PMS_P2;Temp;Humidity;BMP_temperature;BMP_pressure;BME280_temperature;BME280_humidity;BME280_pressure;Samples;Min_cycle;Max_cycle;Signal;HPM_P1;HPM_P2
2022/05/31 00:00:56;;;;;;;5.10;4.10;;;;;;;17.81;69.19;99400.03;1720131;83;21043;-41
2022/05/31 00:03:23;;;;;;;6.10;4.65;;;;;;;17.87;69.37;99396.84;1720182;83;21425;-41
2022/05/31 00:05:50;;;;;;;5.35;4.35;;;;;;;17.90;69.54;99402.91;1720289;83;20968;-41
2022/05/31 00:08:17;;;;;;;7.95;5.08;;;;;;;17.91;69.73;99405.84;1720053;83;21243;-41
2022/05/31 00:10:44;;;;;;;5.87;4.80;;;;;;;17.89;69.66;99410.94;1720374;83;21015;-41
2022/05/31 00:13:11;;;;;;;6.55;4.92;;;;;;;17.85;69.56;99414.31;1720121;83;20967;-41
2022/05/31 00:15:37;;;;;;;5.75;4.62;;;;;;;17.80;69.73;99410.05;1720284;83;21012;-41
2022/05/31 00:18:05;;;;;;;6.12;4.47;;;;;;;17.77;69.73;99418.48;1715436;83;21083;-41
2022/05/31 00:20:33;;;;;;;4.95;4.33;;;;;;;17.84;69.26;99414.91;1720567;83;21220;-41
2022/05/31 00:23:00;;;;;;;5.87;4.75;;;;;;;17.88;68.85;99409.38;1720360;83;21609;-41
2022/05/31 00:25:26;;;;;;;6.55;4.72;;;;;;;17.88;68.55;99401.93;1720521;83;21492;-41
2022/05/31 00:27:53;;;;;;;10.05;4.42;;;;;;;17.88;68.29;99404.67;1720394;83;21012;-41
2022/05/31 00:30:20;;;;;;;8.13;5.47;;;;;;;17.87;68.11;99406.44;1720328;83;21060;-41
2022/05/31 00:32:49;;;;;;;6.00;4.58;;;;;;;17.85;68.03;99403.34;1720095;83;21179;-41
2022/05/31 00:35:21;;;;;;;8.10;4.47;;;;;;;17.85;67.94;99404.72;1720611;83;20960;-41
2022/05/31 00:37:48;;;;;;;5.08;4.50;;;;;;;17.85;67.80;99403.34;1719147;83;21083;-41
2022/05/31 00:40:17;;;;;;;8.38;4.80;;;;;;;17.84;67.74;99401.78;1720288;83;21429;-41
2022/05/31 00:42:57;;;;;;;5.53;4.45;;;;;;;17.83;67.63;99405.70;1720417;83;21044;-41
2022/05/31 00:45:50;;;;;;;7.00;4.45;;;;;;;17.80;67.51;99403.98;1720309;83;22081;-41
2022/05/31 00:48:24;;;;;;;6.62;4.95;;;;;;;17.76;67.42;99399.71;1720297;83;20992;-41
2022/05/31 00:50:58;;;;;;;4.37;3.85;;;;;;;17.62;67.53;99408.07;1720196;83;21079;-41
2022/05/31 00:53:31;;;;;;;9.50;4.08;;;;;;;17.59;67.71;99411.02;1719895;83;21049;-41
2022/05/31 00:56:07;;;;;;;5.70;4.17;;;;;;;17.62;67.62;99413.55;1720238;83;21080;-41
2022/05/31 00:58:40;;;;;;;7.58;4.50;;;;;;;17.67;67.48;99410.38;1717920;83;21790;-41
2022/05/31 01:01:11;;;;;;;6.00;4.45;;;;;;;17.68;67.45;99414.06;1707219;84;20969;-41
2022/05/31 01:03:40;;;;;;;7.05;4.60;;;;;;;17.69;67.46;99414.84;1743066;81;20969;-41
2022/05/31 01:06:07;;;;;;;7.70;4.83;;;;;;;17.69;67.32;99407.98;1707215;84;21001;-41
2022/05/31 01:08:37;;;;;;;6.47;4.35;;;;;;;17.67;67.32;99413.87;1743049;82;21519;-41
2022/05/31 01:11:26;;;;;;;12.90;4.42;;;;;;;17.70;67.34;99420.52;1743001;82;21251;-41
2022/05/31 01:13:55;;;;;;;6.25;4.60;;;;;;;17.71;67.32;99413.27;1740520;82;21110;-41
2022/05/31 01:17:06;;;;;;;8.65;4.37;;;;;;;17.67;67.30;99404.27;1742971;81;21484;-41
2022/05/31 01:19:56;;;;;;;6.70;4.65;;;;;;;17.60;67.35;99402.98;1695096;81;21088;-41
2022/05/31 01:22:33;;;;;;;8.00;5.10;;;;;;;17.49;67.49;99406.95;1742870;82;21081;-41
2022/05/31 01:25:24;;;;;;;6.87;4.08;;;;;;;17.38;67.47;99412.52;1706988;84;21129;-41
2022/05/31 01:28:46;;;;;;;7.30;4.15;;;;;;;17.35;67.54;99409.23;1707050;84;21045;-41
2022/05/31 01:31:30;;;;;;;6.22;4.97;;;;;;;17.36;67.67;99406.68;1707049;84;21028;-41
2022/05/31 01:34:18;;;;;;;5.58;4.62;;;;;;;17.29;67.64;99403.39;1742853;82;21581;-41
2022/05/31 01:36:56;;;;;;;12.55;5.62;;;;;;;17.26;67.78;99400.09;1707464;84;21096;-41
2022/05/31 01:39:48;;;;;;;6.03;5.42;;;;;;;17.18;68.04;99403.30;1742940;82;21489;-41
2022/05/31 01:42:22;;;;;;;8.03;4.60;;;;;;;17.10;68.45;99399.03;1707061;83;21002;-41
2022/05/31 01:44:56;;;;;;;9.35;5.20;;;;;;;17.08;68.67;99410.41;1707451;84;21020;-41
2022/05/31 01:47:22;;;;;;;8.88;5.30;;;;;;;17.09;68.71;99415.30;1743558;81;21476;-41
2022/05/31 01:49:52;;;;;;;7.17;5.17;;;;;;;17.05;68.95;99414.52;1707286;84;21282;-41
2022/05/31 01:52:19;;;;;;;6.40;5.70;;;;;;;17.05;69.07;99422.73;1707482;84;21176;-41
2022/05/31 01:54:46;;;;;;;6.70;5.05;;;;;;;17.05;69.15;99415.89;1743008;82;20981;-41
2022/05/31 01:57:14;;;;;;;11.93;4.83;;;;;;;17.02;69.21;99414.75;1707326;83;21787;-41
2022/05/31 01:59:46;;;;;;;6.17;4.78;;;;;;;17.06;69.18;99420.19;1748952;81;21060;-41
2022/05/31 02:02:15;;;;;;;6.78;5.10;;;;;;;17.07;68.93;99419.80;1756245;81;21781;-41
2022/05/31 02:04:43;;;;;;;7.20;5.55;;;;;;;17.07;68.94;99423.13;1756425;81;21311;-41
2022/05/31 02:07:19;;;;;;;8.45;5.60;;;;;;;17.06;68.92;99420.19;1720186;83;21586;-41
2022/05/31 02:09:48;;;;;;;8.83;5.00;;;;;;;17.03;68.94;99421.01;1720363;83;21167;-41
2022/05/31 02:12:20;;;;;;;7.28;4.62;;;;;;;17.00;69.11;99423.94;1719491;83;21031;-41
2022/05/31 02:14:49;;;;;;;8.85;5.08;;;;;;;17.02;69.12;99429.03;1718380;83;21080;-41
2022/05/31 02:17:16;;;;;;;7.50;4.97;;;;;;;17.02;69.20;99426.29;1720187;83;21243;-41
2022/05/31 02:20:00;;;;;;;11.83;5.62;;;;;;;17.01;68.95;99426.09;1716433;83;20976;-41
2022/05/31 02:22:30;;;;;;;7.20;5.05;;;;;;;16.91;69.04;99433.98;1719906;83;21700;-41
2022/05/31 02:24:57;;;;;;;6.67;4.95;;;;;;;16.89;69.12;99433.58;1720489;83;21004;-41
2022/05/31 02:27:24;;;;;;;9.23;5.87;;;;;;;16.94;69.18;99437.89;1720524;83;21036;-41
2022/05/31 02:29:52;;;;;;;7.03;5.35;;;;;;;16.92;69.00;99442.39;1720278;83;22030;-41
2022/05/31 02:32:19;;;;;;;8.50;5.90;;;;;;;16.89;69.12;99439.67;1720010;83;21524;-41
2022/05/31 02:34:48;;;;;;;10.13;6.33;;;;;;;16.87;69.10;99446.91;1720499;83;20984;-41
2022/05/31 02:37:16;;;;;;;9.35;5.70;;;;;;;16.84;69.14;99443.61;1720349;83;21329;-41
2022/05/31 02:39:43;;;;;;;10.85;6.17;;;;;;;16.82;69.24;99444.59;1720500;83;21013;-41
2022/05/31 02:42:10;;;;;;;11.18;6.55;;;;;;;16.85;69.13;99449.84;1720213;83;21236;-41
2022/05/31 02:44:38;;;;;;;7.15;5.92;;;;;;;16.81;69.07;99447.13;1720512;83;21012;-41
2022/05/31 02:47:06;;;;;;;7.92;6.22;;;;;;;16.81;69.56;99452.61;1720150;83;20965;-41
2022/05/31 02:49:32;;;;;;;10.88;6.30;;;;;;;16.85;69.72;99449.84;1720469;83;20956;-41
2022/05/31 02:51:59;;;;;;;7.30;5.83;;;;;;;16.82;69.56;99449.28;1720336;83;21032;-41
2022/05/31 02:54:27;;;;;;;9.45;6.03;;;;;;;16.87;69.33;99457.08;1720447;83;21171;-41
2022/05/31 02:57:04;;;;;;;9.50;6.17;;;;;;;16.90;69.28;99450.20;1697051;83;21487;-40
2022/05/31 02:59:49;;;;;;;9.75;6.42;;;;;;;16.93;69.18;99450.02;1718421;83;21533;-41
2022/05/31 03:02:36;;;;;;;9.70;6.60;;;;;;;16.90;68.98;99454.31;1715348;83;21530;-41
2022/05/31 03:05:21;;;;;;;7.42;5.75;;;;;;;16.89;68.97;99454.13;1715038;83;21519;-41
2022/05/31 03:08:07;;;;;;;9.35;6.30;;;;;;;16.94;68.69;99459.80;1715167;83;21822;-41
2022/05/31 03:10:39;;;;;;;7.65;6.17;;;;;;;16.94;68.66;99462.53;1749501;82;20969;-40
2022/05/31 03:13:06;;;;;;;9.88;6.75;;;;;;;16.94;68.57;99456.44;1750775;82;21000;-41
2022/05/31 03:15:35;;;;;;;10.25;7.03;;;;;;;16.94;68.51;99459.18;1750880;82;21014;-41
2022/05/31 03:18:06;;;;;;;8.18;6.00;;;;;;;16.92;68.59;99459.41;1750925;82;21033;-39
2022/05/31 03:20:38;;;;;;;8.88;6.22;;;;;;;16.91;68.84;99463.31;1751309;82;21507;-40
2022/05/31 03:23:16;;;;;;;8.40;6.05;;;;;;;16.95;68.64;99472.29;1714629;83;21051;-41
2022/05/31 03:25:44;;;;;;;8.80;6.23;;;;;;;16.95;68.78;99481.88;1751126;81;21049;-41
2022/05/31 03:28:12;;;;;;;9.50;6.83;;;;;;;16.95;68.79;99475.81;1750814;82;21013;-41
2022/05/31 03:30:39;;;;;;;10.13;6.83;;;;;;;16.97;68.69;99478.75;1714919;83;21056;-41
2022/05/31 03:33:07;;;;;;;12.00;7.20;;;;;;;16.99;68.73;99475.81;1714790;83;21181;-41
2022/05/31 03:35:34;;;;;;;9.53;6.12;;;;;;;16.97;68.65;99472.68;1750856;82;21149;-41
2022/05/31 03:38:03;;;;;;;10.75;7.45;;;;;;;16.98;68.70;99476.98;1750841;81;21492;-41
2022/05/31 03:43:19;;;;;;;17.07;8.33;;;;;;;16.99;68.86;99497.72;1746555;82;21602;-41
2022/05/31 03:45:49;;;;;;;12.00;8.33;;;;;;;17.00;69.20;99499.84;1748246;81;21135;-41
2022/05/31 03:48:36;;;;;;;9.95;7.37;;;;;;;17.04;69.37;99507.48;1750957;82;21021;-41
2022/05/31 03:51:06;;;;;;;11.78;7.30;;;;;;;17.04;69.21;99515.08;1714723;83;20965;-41
2022/05/31 03:53:33;;;;;;;12.73;7.10;;;;;;;17.10;69.12;99514.08;1751165;81;21028;-41
2022/05/31 03:56:05;;;;;;;10.32;7.28;;;;;;;17.13;68.96;99516.05;1714730;83;21016;-41
2022/05/31 03:58:34;;;;;;;10.82;7.28;;;;;;;17.14;69.00;99521.69;1751171;82;21085;-41
2022/05/31 04:01:14;;;;;;;12.18;7.10;;;;;;;17.15;68.92;99525.99;1754199;81;20956;-41
2022/05/31 04:03:42;;;;;;;11.50;6.53;;;;;;;17.14;68.89;99519.73;1720237;83;21033;-41
2022/05/31 04:06:11;;;;;;;9.00;6.95;;;;;;;17.09;68.91;99515.28;1720184;83;20976;-41
2022/05/31 04:08:37;;;;;;;10.82;8.13;;;;;;;17.05;68.85;99523.50;1720359;83;21028;-41
2022/05/31 04:11:04;;;;;;;10.95;7.87;;;;;;;17.02;69.00;99527.05;1720272;83;21955;-41
2022/05/31 04:13:31;;;;;;;10.55;8.05;;;;;;;16.97;69.12;99530.20;1720427;83;21055;-41
2022/05/31 04:16:13;;;;;;;9.20;7.20;;;;;;;16.91;69.29;99532.56;1720170;83;20972;-41
2022/05/31 04:18:43;;;;;;;10.00;7.33;;;;;;;16.86;69.19;99529.45;1720359;83;20948;-41
2022/05/31 04:21:13;;;;;;;12.93;7.97;;;;;;;16.86;69.18;99539.03;1720363;83;21079;-41
2022/05/31 04:23:58;;;;;;;11.90;7.72;;;;;;;16.87;69.03;99540.02;1720597;83;21248;-41
2022/05/31 04:26:46;;;;;;;13.93;7.62;;;;;;;16.86;69.04;99541.77;1720349;83;21021;-41
2022/05/31 04:29:26;;;;;;;10.25;8.38;;;;;;;16.77;69.19;99540.83;1720086;83;21304;-41
2022/05/31 04:32:12;;;;;;;11.28;7.37;;;;;;;16.70;69.19;99536.73;1720239;83;20993;-41
2022/05/31 04:34:55;;;;;;;10.85;7.30;;;;;;;16.65;68.98;99548.12;1719580;83;21498;-41
2022/05/31 04:37:22;;;;;;;12.18;7.75;;;;;;;16.62;69.04;99554.36;1720153;83;21125;-41
2022/05/31 04:40:09;;;;;;;12.23;8.40;;;;;;;16.59;68.89;99566.70;1720176;83;21523;-41
2022/05/31 04:42:53;;;;;;;11.40;7.85;;;;;;;16.57;68.82;99574.48;1718560;83;21027;-41
2022/05/31 04:45:21;;;;;;;9.98;6.97;;;;;;;16.55;68.54;99576.27;1690990;83;21040;-41
2022/05/31 04:47:50;;;;;;;10.00;7.05;;;;;;;16.56;68.54;99575.06;1715465;83;21550;-41
2022/05/31 04:50:17;;;;;;;10.32;7.03;;;;;;;16.60;68.22;99575.11;1720031;83;21685;-41
2022/05/31 04:52:43;;;;;;;11.35;6.67;;;;;;;16.61;68.09;99569.22;1720265;83;21546;-41
2022/05/31 04:55:10;;;;;;;9.35;7.15;;;;;;;16.59;68.11;99572.17;1720007;83;21015;-41
2022/05/31 04:57:39;;;;;;;10.60;6.43;;;;;;;16.56;68.29;99570.95;1720085;83;21019;-41
2022/05/31 05:00:09;;;;;;;9.53;6.28;;;;;;;16.55;68.29;99567.27;1719055;83;21044;-41
2022/05/31 05:02:38;;;;;;;10.35;6.30;;;;;;;16.55;68.38;99571.38;1713879;83;21114;-41
2022/05/31 05:05:09;;;;;;;10.13;6.80;;;;;;;16.61;68.28;99571.95;1714952;83;21024;-41
2022/05/31 05:07:40;;;;;;;9.15;7.22;;;;;;;16.35;68.26;99526.64;1750086;81;20977;-41
2022/05/31 05:10:08;;;;;;;12.65;7.83;;;;;;;16.64;68.35;99569.03;1750718;81;20965;-41
2022/05/31 05:12:40;;;;;;;10.80;7.67;;;;;;;16.63;68.45;99576.46;1750821;81;21009;-41
2022/05/31 05:15:25;;;;;;;8.28;6.80;;;;;;;16.66;68.49;99579.77;1714784;83;21247;-41
2022/05/31 05:17:52;;;;;;;9.95;7.95;;;;;;;16.69;68.63;99572.16;1750768;82;21064;-41
2022/05/31 05:20:19;;;;;;;12.37;8.13;;;;;;;16.69;68.51;99583.11;1750953;81;21008;-42
2022/05/31 05:22:46;;;;;;;10.08;8.28;;;;;;;16.69;68.63;99587.80;1746310;82;21040;-41
2022/05/31 05:25:13;;;;;;;12.05;7.90;;;;;;;16.70;68.67;99581.91;1714888;83;20997;-41
2022/05/31 05:27:42;;;;;;;10.20;7.08;;;;;;;16.71;68.43;99582.11;1714243;83;21138;-41
2022/05/31 05:33:05;;;;;;;9.85;7.87;;;;;;;16.80;68.54;99600.27;1747210;82;21105;-41
2022/05/31 05:35:34;;;;;;;13.93;7.92;;;;;;;16.81;68.80;99608.68;1751169;82;21037;-41
2022/05/31 05:38:11;;;;;;;12.07;7.45;;;;;;;16.84;68.70;99601.64;1715020;83;21009;-41
2022/05/31 05:40:43;;;;;;;9.53;7.30;;;;;;;16.84;68.90;99605.75;1711029;83;23182;-41
2022/05/31 05:43:11;;;;;;;8.93;7.30;;;;;;;16.85;68.88;99601.81;1686420;83;21070;-41
2022/05/31 05:45:52;;;;;;;12.18;8.25;;;;;;;16.90;68.71;99602.20;1714426;83;21080;-41
2022/05/31 05:48:18;;;;;;;13.78;8.48;;;;;;;16.91;68.60;99605.72;1751220;82;21037;-41
2022/05/31 05:50:46;;;;;;;11.03;8.48;;;;;;;16.95;68.67;99613.33;1715024;83;21076;-41
2022/05/31 05:53:28;;;;;;;14.38;8.48;;;;;;;16.99;68.52;99616.08;1719802;81;21128;-41
2022/05/31 05:56:15;;;;;;;11.50;8.08;;;;;;;17.02;68.64;99620.76;1693060;84;21524;-41
2022/05/31 05:58:59;;;;;;;9.75;7.72;;;;;;;17.09;68.35;99637.19;1691959;84;21636;-41
2022/05/31 06:01:50;;;;;;;12.90;8.25;;;;;;;17.14;68.14;99649.08;1721022;82;21604;-41
2022/05/31 06:04:27;;;;;;;11.20;8.63;;;;;;;17.18;67.95;99647.13;1741277;82;21895;-41
2022/05/31 06:07:06;;;;;;;11.63;7.30;;;;;;;17.20;67.82;99661.20;1742587;82;21125;-41
2022/05/31 06:09:32;;;;;;;11.40;7.25;;;;;;;17.19;67.71;99656.30;1742394;82;21028;-41
2022/05/31 06:12:04;;;;;;;8.35;7.33;;;;;;;17.19;67.39;99661.78;1742836;82;20945;-41
2022/05/31 06:14:43;;;;;;;10.93;7.40;;;;;;;17.21;66.88;99665.51;1742974;82;21084;-41
2022/05/31 06:17:18;;;;;;;9.75;7.42;;;;;;;17.18;66.95;99674.53;1741983;82;21668;-41
2022/05/31 06:19:47;;;;;;;9.68;7.42;;;;;;;17.16;67.21;99676.88;1743281;82;21923;-41
2022/05/31 06:22:14;;;;;;;8.83;6.90;;;;;;;17.17;67.24;99668.27;1742786;82;20997;-41
2022/05/31 06:24:42;;;;;;;12.13;6.95;;;;;;;17.20;67.33;99659.83;1740549;82;20930;-41
2022/05/31 06:27:14;;;;;;;8.83;6.85;;;;;;;17.23;67.16;99663.17;1738402;82;21629;-41
2022/05/31 06:29:42;;;;;;;8.83;6.92;;;;;;;17.27;66.95;99675.67;1742595;82;21009;-41
2022/05/31 06:32:10;;;;;;;8.85;6.25;;;;;;;17.28;66.87;99667.63;1742986;82;21082;-41
2022/05/31 06:34:40;;;;;;;9.15;5.90;;;;;;;17.34;66.67;99672.11;1742544;82;21017;-41
2022/05/31 06:37:17;;;;;;;6.37;5.22;;;;;;;17.36;66.52;99684.84;1713667;82;21088;-41
2022/05/31 06:39:46;;;;;;;4.87;4.40;;;;;;;17.35;66.55;99677.79;1713024;83;21088;-41
2022/05/31 06:42:17;;;;;;;7.97;6.78;;;;;;;17.36;67.15;99678.77;1690411;83;21006;-41
2022/05/31 06:44:59;;;;;;;9.78;6.62;;;;;;;17.42;67.32;99677.78;1655132;83;21146;-41
2022/05/31 06:47:42;;;;;;;8.18;6.67;;;;;;;17.41;67.42;99683.06;1674987;85;21017;-41
2022/05/31 06:50:20;;;;;;;9.38;6.97;;;;;;;17.40;67.72;99678.75;1695603;83;21024;-41
2022/05/31 06:58:45;;;;;;;6.95;6.10;;;;;;;17.44;67.04;99691.06;1708615;83;21133;-41
2022/05/31 07:01:12;;;;;;;7.00;5.90;;;;;;;17.46;66.91;99690.88;1715286;83;21567;-41
2022/05/31 07:03:40;;;;;;;9.48;6.37;;;;;;;17.42;66.31;99687.95;1713627;83;21531;-41
2022/05/31 07:06:06;;;;;;;7.17;6.33;;;;;;;17.35;66.04;99693.65;1718728;83;21582;-41
2022/05/31 07:08:35;;;;;;;7.50;5.70;;;;;;;17.28;65.92;99692.91;1718834;83;20966;-41
2022/05/31 07:11:02;;;;;;;9.05;5.92;;;;;;;17.25;66.12;99696.41;1718619;83;21244;-41
2022/05/31 07:13:48;;;;;;;7.65;6.20;;;;;;;17.24;66.31;99696.22;1695866;83;21790;-41
2022/05/31 07:16:26;;;;;;;7.47;6.70;;;;;;;17.22;66.38;99706.22;1650684;86;21109;-41
2022/05/31 07:19:03;;;;;;;7.97;6.30;;;;;;;17.20;66.68;99724.22;1718576;83;21564;-41
2022/05/31 07:21:32;;;;;;;;;;;;;;;17.14;65.89;99728.53;1720682;83;21012;-41
2022/05/31 07:23:58;;;;;;;12.10;5.17;;;;;;;17.04;66.48;99729.35;1718708;83;21139;-41
2022/05/31 07:26:26;;;;;;;6.95;4.03;;;;;;;16.88;67.49;99733.86;1728645;82;21491;-41
2022/05/31 07:28:54;;;;;;;5.97;3.60;;;;;;;16.83;66.73;99735.04;1748592;82;21030;-41
2022/05/31 07:31:22;;;;;;;5.08;3.33;;;;;;;16.75;65.96;99726.61;1748461;82;21056;-41
2022/05/31 07:33:51;;;;;;;4.05;2.58;;;;;;;16.69;65.50;99723.31;1747225;82;21072;-41
2022/05/31 07:36:19;;;;;;;3.25;2.62;;;;;;;16.59;65.38;99718.03;1748366;82;21232;-41
2022/05/31 07:39:03;;;;;;;2.90;2.30;;;;;;;16.44;65.50;99719.16;1748203;82;21076;-41
2022/05/31 07:41:32;;;;;;;3.05;2.40;;;;;;;16.27;66.20;99726.73;1748730;82;20990;-41
2022/05/31 07:44:01;;;;;;;2.65;2.00;;;;;;;16.20;66.56;99726.16;1748823;82;20998;-41
2022/05/31 07:46:29;;;;;;;4.17;2.40;;;;;;;16.09;66.82;99716.56;1748582;82;21029;-41
2022/05/31 07:48:58;;;;;;;3.15;2.40;;;;;;;16.02;67.67;99716.53;1748721;82;21134;-41
2022/05/31 07:51:30;;;;;;;4.03;2.17;;;;;;;15.92;68.16;99711.05;1746396;82;21531;-41
2022/05/31 07:54:08;;;;;;;3.50;2.05;;;;;;;15.83;68.42;99718.23;1744107;82;21008;-41
2022/05/31 07:56:53;;;;;;;3.27;2.35;;;;;;;15.77;68.87;99723.89;1748330;82;21016;-41
2022/05/31 07:59:27;;;;;;;2.62;2.12;;;;;;;15.70;69.17;99729.32;1744096;82;21014;-41
2022/05/31 08:02:14;;;;;;;2.85;2.20;;;;;;;15.67;69.34;99746.50;1735155;81;21076;-41
2022/05/31 08:04:45;;;;;;;5.35;1.92;;;;;;;15.68;69.59;99745.92;1733689;82;21505;-41
2022/05/31 08:07:12;;;;;;;4.72;2.47;;;;;;;15.65;68.97;99737.89;1734295;82;20974;-41
2022/05/31 08:09:38;;;;;;;4.25;2.40;;;;;;;15.55;68.74;99740.77;1734544;82;21484;-41
2022/05/31 08:12:10;;;;;;;4.30;1.98;;;;;;;15.45;68.79;99739.31;1734471;82;21061;-41
2022/05/31 08:14:38;;;;;;;3.17;2.15;;;;;;;15.41;68.94;99739.89;1734404;82;21233;-41
2022/05/31 08:17:05;;;;;;;3.87;2.17;;;;;;;15.32;69.14;99751.73;1734472;82;21052;-41
2022/05/31 08:19:31;;;;;;;4.60;2.10;;;;;;;15.27;69.80;99745.27;1734504;82;21072;-41
2022/05/31 08:21:58;;;;;;;6.92;2.33;;;;;;;15.26;70.28;99748.58;1734774;82;21693;-41
2022/05/31 08:24:25;;;;;;;4.92;2.62;;;;;;;15.18;70.93;99753.23;1734732;82;21473;-41
2022/05/31 08:26:51;;;;;;;3.33;2.10;;;;;;;15.12;71.00;99764.87;1734597;82;21925;-41
2022/05/31 08:29:19;;;;;;;5.40;2.20;;;;;;;15.10;71.05;99774.05;1734608;82;20985;-41
2022/05/31 08:31:46;;;;;;;3.45;2.40;;;;;;;15.16;70.75;99776.03;1734384;82;21433;-41
2022/05/31 08:34:13;;;;;;;3.45;2.02;;;;;;;15.23;70.80;99768.47;1734386;82;20990;-41
2022/05/31 08:36:40;;;;;;;5.35;2.10;;;;;;;15.20;70.09;99765.15;1734412;82;21073;-41
2022/05/31 08:39:07;;;;;;;3.45;2.02;;;;;;;15.15;69.90;99755.34;1734536;82;21248;-41
2022/05/31 08:41:44;;;;;;;3.62;1.87;;;;;;;15.06;70.02;99753.52;1734323;82;21020;-41
2022/05/31 08:44:34;;;;;;;2.20;1.80;;;;;;;15.03;70.68;99756.23;1734427;82;21539;-41
2022/05/31 08:47:36;;;;;;;4.08;2.30;;;;;;;15.08;71.27;99749.05;1734742;82;20974;-41
2022/05/31 08:53:31;;;;;;;3.37;1.70;;;;;;;15.06;71.26;99727.58;1734648;82;21234;-41
2022/05/31 08:59:07;;;;;;;;;;;;;;;14.98;71.58;99720.52;1737412;82;21087;-41
2022/05/31 09:01:38;;;;;;;3.52;2.33;;;;;;;14.92;72.23;99727.48;1738281;81;20182;-41
2022/05/31 09:04:19;;;;;;;3.85;2.70;;;;;;;14.79;72.96;99734.41;1748467;82;21492;-41
2022/05/31 09:06:54;;;;;;;3.10;2.20;;;;;;;14.84;73.30;99742.25;1748607;82;21775;-41
2022/05/31 09:09:27;;;;;;;3.98;2.47;;;;;;;14.90;73.07;99750.30;1748733;82;20953;-41
2022/05/31 09:15:07;;;;;;;4.08;2.58;;;;;;;15.06;73.68;99734.41;1779522;79;22549;-41
2022/05/31 09:18:26;;;;;;;5.00;3.00;;;;;;;15.09;73.93;99741.07;1739137;82;21040;-41
2022/05/31 09:20:56;;;;;;;4.95;2.77;;;;;;;15.19;74.01;99738.41;1730173;82;21137;-41
2022/05/31 09:23:28;;;;;;;3.27;2.77;;;;;;;15.26;73.67;99738.23;1737008;82;20934;-41
2022/05/31 09:26:13;;;;;;;4.55;2.80;;;;;;;15.32;73.93;99736.72;1738938;82;20987;-41
2022/05/31 09:29:18;;;;;;;3.37;2.70;;;;;;;15.40;73.82;99736.95;1728645;81;21032;-41
2022/05/31 09:32:18;;;;;;;3.85;2.70;;;;;;;15.54;73.55;99754.84;1694266;84;21035;-41
2022/05/31 09:35:27;;;;;;;4.92;2.80;;;;;;;15.60;73.44;99757.38;1680741;85;21322;-41
2022/05/31 09:38:20;;;;;;;4.08;2.80;;;;;;;15.64;72.99;99757.60;1694051;84;20976;-41
2022/05/31 09:40:50;;;;;;;3.65;3.02;;;;;;;15.72;72.70;99763.90;1680971;85;21040;-41
2022/05/31 09:43:23;;;;;;;3.15;2.85;;;;;;;15.84;72.52;99763.55;1689055;84;21538;-41
2022/05/31 09:45:58;;;;;;;3.55;2.90;;;;;;;15.91;72.10;99769.05;1681031;85;21104;-41
2022/05/31 09:48:25;;;;;;;4.03;3.30;;;;;;;15.96;71.72;99762.43;1694130;84;21089;-41
2022/05/31 09:50:59;;;;;;;5.80;3.85;;;;;;;16.03;71.56;99754.23;1681026;85;21057;-41
2022/05/31 09:59:11;;;;;;;5.03;3.80;;;;;;;16.14;70.25;99751.53;1651663;84;21492;-41
2022/05/31 10:02:15;;;;;;;5.87;3.92;;;;;;;16.25;69.69;99759.20;1680918;85;23177;-41
2022/05/31 10:04:43;;;;;;;6.80;4.35;;;;;;;16.39;69.77;99761.95;1693610;84;21005;-41
2022/05/31 10:07:10;;;;;;;7.15;3.83;;;;;;;16.61;69.76;99777.25;1681090;85;21023;-41
2022/05/31 10:09:43;;;;;;;5.12;3.62;;;;;;;16.88;69.86;99779.83;1722019;83;21450;-41
2022/05/31 10:12:26;;;;;;;5.00;3.70;;;;;;;17.17;66.60;99781.19;1709684;84;21026;-41
2022/05/31 10:14:56;;;;;;;5.50;4.05;;;;;;;17.40;66.06;99785.64;1708470;83;20970;-42
2022/05/31 10:17:42;;;;;;;5.22;3.95;;;;;;;17.61;66.25;99778.78;1707646;84;21002;-41
2022/05/31 10:20:24;;;;;;;5.78;3.87;;;;;;;17.79;65.54;99780.87;1671835;84;21532;-41
2022/05/31 10:23:00;;;;;;;;;;;;;;;17.92;63.94;99781.78;1710311;84;21062;-41
2022/05/31 10:25:57;;;;;;;4.72;3.60;;;;;;;18.01;64.49;99774.69;1707149;84;20138;-41
2022/05/31 10:28:56;;;;;;;4.62;3.50;;;;;;;18.13;64.23;99773.47;1707012;84;21880;-41
2022/05/31 10:31:38;;;;;;;5.58;3.80;;;;;;;18.45;63.98;99764.45;1703877;84;21029;-41
2022/05/31 10:34:24;;;;;;;5.20;3.45;;;;;;;18.82;61.31;99758.34;1706978;84;21020;-42
2022/05/31 10:36:54;;;;;;;3.87;3.17;;;;;;;19.10;60.07;99762.21;1682965;84;21045;-41
2022/05/31 10:39:31;;;;;;;3.85;3.42;;;;;;;19.39;59.93;99761.33;1706961;84;21613;-41
2022/05/31 10:42:00;;;;;;;3.65;3.20;;;;;;;19.70;59.42;99764.17;1707089;83;21507;-41
2022/05/31 10:44:52;;;;;;;3.52;2.80;;;;;;;19.96;57.87;99763.45;1706861;84;20973;-42
2022/05/31 10:47:21;;;;;;;3.77;3.10;;;;;;;20.19;57.01;99755.86;1707194;84;20986;-41
2022/05/31 10:49:48;;;;;;;3.80;2.85;;;;;;;20.43;55.90;99749.87;1706990;84;21070;-41
2022/05/31 10:52:53;;;;;;;3.50;2.90;;;;;;;20.56;55.92;99753.59;1706920;83;21117;-42
2022/05/31 10:55:39;;;;;;;2.67;2.20;;;;;;;20.61;54.96;99760.02;1706379;84;21900;-42
2022/05/31 10:58:21;;;;;;;4.40;2.62;;;;;;;20.71;54.61;99765.96;1707111;84;21049;-42
2022/05/31 11:00:55;;;;;;;4.30;2.50;;;;;;;20.85;54.98;99769.08;1707347;84;21625;-41
2022/05/31 11:03:35;;;;;;;2.98;2.52;;;;;;;21.01;54.43;99772.72;1707016;83;21041;-42
2022/05/31 11:06:45;;;;;;;4.45;2.65;;;;;;;21.11;54.27;99770.39;1707188;83;21517;-42
2022/05/31 11:12:50;;;;;;;2.65;2.25;;;;;;;21.66;52.65;99773.94;1643708;86;20955;-42
2022/05/31 11:15:49;;;;;;;2.98;2.65;;;;;;;21.71;52.73;99771.88;1712303;83;21052;-41
2022/05/31 11:18:33;;;;;;;3.12;2.40;;;;;;;21.72;52.04;99776.98;1712345;83;21109;-42
2022/05/31 11:21:14;;;;;;;4.80;2.22;;;;;;;21.54;52.06;99736.55;1712661;83;21021;-42
2022/05/31 11:24:18;;;;;;;2.30;2.10;;;;;;;21.94;52.26;99765.70;1712572;83;21195;-42
2022/05/31 11:27:13;;;;;;;3.42;2.05;;;;;;;22.16;50.42;99772.17;1672175;83;21583;-42
2022/05/31 11:30:04;;;;;;;3.67;2.00;;;;;;;22.26;50.84;99768.40;1684905;83;21065;-42
2022/05/31 11:33:01;;;;;;;2.08;1.87;;;;;;;22.42;50.20;99757.36;1712517;83;21089;-42
2022/05/31 11:36:11;;;;;;;4.28;2.02;;;;;;;22.63;48.92;99758.25;1712468;83;21382;-42
2022/05/31 11:38:44;;;;;;;3.90;2.27;;;;;;;23.08;49.05;99757.58;1712717;83;23147;-42
2022/05/31 11:41:34;;;;;;;2.50;1.95;;;;;;;23.38;47.81;99757.19;1712659;83;21539;-42
2022/05/31 11:44:54;;;;;;;4.80;1.90;;;;;;;23.45;47.04;99759.77;1712905;83;21323;-42
2022/05/31 11:47:31;;;;;;;2.85;1.70;;;;;;;23.56;47.32;99757.50;1712749;83;20969;-42
2022/05/31 11:50:03;;;;;;;2.27;1.92;;;;;;;23.92;47.12;99758.63;1712445;83;21042;-42
2022/05/31 11:53:15;;;;;;;1.67;1.57;;;;;;;24.29;45.92;99751.64;1712469;83;21403;-42
2022/05/31 11:55:50;;;;;;;2.62;1.60;;;;;;;24.65;45.66;99753.44;1712481;83;20998;-42
2022/05/31 11:58:29;;;;;;;2.05;1.85;;;;;;;25.06;44.55;99752.52;1712341;83;21021;-42
2022/05/31 12:01:16;;;;;;;2.50;1.50;;;;;;;25.22;43.30;99754.36;1712807;83;21538;-42
2022/05/31 12:04:13;;;;;;;1.95;1.57;;;;;;;25.16;43.37;99753.38;1712584;83;21006;-42
2022/05/31 12:06:51;;;;;;;3.67;1.30;;;;;;;25.39;43.47;99758.50;1662487;83;21146;-42
2022/05/31 12:09:27;;;;;;;3.05;1.40;;;;;;;25.67;42.80;99760.13;1694606;83;21100;-42
2022/05/31 12:12:13;;;;;;;3.05;1.50;;;;;;;25.98;41.61;99758.17;1703200;84;21126;-43
2022/05/31 12:14:49;;;;;;;2.75;1.27;;;;;;;26.13;41.40;99759.80;1701127;83;21611;-42
2022/05/31 12:17:21;;;;;;;2.00;1.37;;;;;;;26.28;40.98;99758.05;1699218;84;21612;-42
2022/05/31 12:20:03;;;;;;;1.98;1.20;;;;;;;26.65;41.12;99757.56;1706989;84;21908;-43
2022/05/31 12:22:41;;;;;;;1.62;1.40;;;;;;;26.96;39.46;99756.91;1699825;84;21857;-42
2022/05/31 12:25:25;;;;;;;2.08;1.00;;;;;;;27.06;39.08;99751.48;1707091;84;20965;-42
2022/05/31 12:27:56;;;;;;;1.57;1.02;;;;;;;26.94;38.15;99757.98;1671860;84;21381;-42
2022/05/31 12:30:31;;;;;;;3.30;1.10;;;;;;;26.64;38.44;99754.62;1707086;84;21547;-43
2022/05/31 12:32:58;;;;;;;1.55;1.10;;;;;;;26.43;38.80;99749.31;1700216;84;21639;-42
2022/05/31 12:35:37;;;;;;;2.33;1.30;;;;;;;26.68;39.61;99746.91;1706668;84;21535;-42
2022/05/31 12:38:08;;;;;;;2.05;1.30;;;;;;;26.77;38.61;99749.73;1699817;84;21702;-43
2022/05/31 12:40:40;;;;;;;2.02;1.10;;;;;;;26.67;39.27;99742.59;1706856;84;21044;-42